Time;durP1;ratioP1;P1;durP2;ratioP2;P2;SDS_P1;SDS_P2;PMS_P1;PMS_P2;Temp;Humidity;BMP_temperature;BMP_pressure;BME280_temperature;BME280_humidity;BME280_pressure;Samples;Min_cycle;Max_cycle;Signal;HPM_P1;HPM_P2
2021/05/08 08:03:06;;;;;;;0.93;0.60;;;12.50;99.20;;;;;;4296256;26;20227;-82
2021/05/08 08:05:33;;;;;;;1.70;0.80;;;12.80;99.20;;;;;;4978906;28;20234;-81
2021/05/08 08:07:59;;;;;;;1.00;0.90;;;13.10;99.40;;;;;;4978217;28;20224;-82
2021/05/08 08:10:25;;;;;;;1.70;0.90;;;13.00;98.90;;;;;;4976738;28;20204;-77
2021/05/08 08:12:51;;;;;;;1.60;0.90;;;13.10;99.80;;;;;;4976242;28;20267;-74
2021/05/08 08:15:18;;;;;;;1.70;1.23;;;13.00;99.00;;;;;;4976439;28;20562;-79
2021/05/08 08:17:46;;;;;;;1.50;1.00;;;13.10;99.90;;;;;;4976451;28;20203;-77
2021/05/08 08:20:15;;;;;;;1.70;0.97;;;13.00;99.20;;;;;;4979450;28;20609;-78
2021/05/08 08:22:42;;;;;;;0.83;0.73;;;12.80;99.90;;;;;;4977083;28;20214;-78
2021/05/08 08:25:10;;;;;;;2.73;1.07;;;12.80;99.80;;;;;;4977006;28;20613;-76
2021/05/08 08:27:37;;;;;;;1.83;0.90;;;12.80;99.70;;;;;;4975536;28;20235;-74
2021/05/08 08:30:06;;;;;;;1.87;1.00;;;13.10;99.90;;;;;;4975500;28;20698;-73
2021/05/08 08:32:32;;;;;;;1.17;0.80;;;13.20;99.80;;;;;;4975656;28;20370;-73
2021/05/08 08:34:59;;;;;;;2.80;0.93;;;13.20;99.40;;;;;;4975661;28;20207;-72
2021/05/08 08:37:26;;;;;;;2.03;0.80;;;13.40;99.90;;;;;;4975378;28;20215;-73
2021/05/08 08:39:52;;;;;;;1.27;0.80;;;13.60;99.80;;;;;;4975341;28;20731;-73
2021/05/08 08:42:19;;;;;;;4.07;0.90;;;13.60;98.90;;;;;;4975558;28;20662;-73
2021/05/08 08:44:46;;;;;;;2.23;0.90;;;13.60;99.90;;;;;;4975955;28;20211;-72
2021/05/08 08:47:28;;;;;;;2.77;1.00;;;13.70;99.90;;;;;;4975086;28;20290;-73
2021/05/08 08:49:58;;;;;;;1.50;0.90;;;13.70;99.50;;;;;;4975448;28;20230;-72
2021/05/08 08:52:26;;;;;;;2.27;0.90;;;13.80;99.90;;;;;;4975362;28;20274;-73
2021/05/08 08:54:53;;;;;;;1.50;0.90;;;13.90;99.90;;;;;;4975259;28;20211;-73
2021/05/08 08:57:25;;;;;;;4.23;1.00;;;14.00;99.90;;;;;;4974965;28;20214;-72
2021/05/08 08:59:53;;;;;;;1.27;0.97;;;14.00;99.90;;;;;;4975194;28;20238;-73
2021/05/08 09:02:21;;;;;;;2.07;1.20;;;14.30;99.90;;;;;;4975036;28;20222;-72
2021/05/08 09:04:47;;;;;;;4.23;0.97;;;14.30;99.90;;;;;;4974980;28;20582;-73
2021/05/08 09:07:15;;;;;;;1.60;0.80;;;14.60;99.80;;;;;;4974835;28;20246;-73
2021/05/08 09:09:43;;;;;;;3.83;1.20;;;14.70;99.90;;;;;;4974838;28;20227;-73
2021/05/08 09:12:12;;;;;;;1.47;1.00;;;14.90;99.90;;;;;;4975008;28;20211;-73
2021/05/08 09:14:39;;;;;;;3.77;1.00;;;15.50;99.90;;;;;;4975052;28;20211;-73
2021/05/08 09:17:10;;;;;;;1.53;0.80;;;15.80;99.10;;;;;;4974979;28;20575;-73
2021/05/08 09:19:38;;;;;;;1.50;0.90;;;15.80;99.90;;;;;;4974200;28;20231;-73
2021/05/08 09:22:25;;;;;;;3.80;0.80;;;15.90;99.70;;;;;;4972956;28;20569;-73
2021/05/08 09:24:58;;;;;;;1.23;0.97;;;15.70;99.70;;;;;;4974999;28;20203;-73
2021/05/08 09:27:57;;;;;;;1.40;1.10;;;15.40;99.00;;;;;;4974655;28;20780;-72
2021/05/08 09:30:25;;;;;;;1.73;1.20;;;15.30;99.90;;;;;;4896327;29;20298;-72
2021/05/08 09:33:01;;;;;;;1.47;0.80;;;15.60;99.90;;;;;;4958614;28;20212;-72
2021/05/08 09:35:29;;;;;;;2.20;1.10;;;15.50;99.90;;;;;;4974835;28;20206;-72
2021/05/08 09:38:07;;;;;;;2.90;0.90;;;14.90;99.90;;;;;;4974817;28;20239;-72
2021/05/08 09:40:35;;;;;;;3.00;1.00;;;14.40;99.90;;;;;;4974449;28;20214;-72
2021/05/08 09:43:08;;;;;;;0.77;0.70;;;14.20;99.90;;;;;;4974473;28;20543;-72
2021/05/08 09:45:38;;;;;;;2.07;0.80;;;14.10;99.90;;;;;;4974627;28;20235;-72
2021/05/08 09:48:17;;;;;;;2.23;1.13;;;14.10;99.90;;;;;;4974527;28;20230;-72
2021/05/08 09:50:43;;;;;;;1.53;0.87;;;14.20;99.90;;;;;;4974494;28;20211;-72
2021/05/08 09:53:09;;;;;;;2.50;1.07;;;14.30;99.90;;;;;;4974396;28;20670;-72
2021/05/08 09:55:36;;;;;;;0.83;0.70;;;14.40;99.90;;;;;;4974397;28;20222;-72
2021/05/08 09:58:04;;;;;;;2.27;1.10;;;14.30;99.90;;;;;;4974393;28;20589;-72
2021/05/08 10:00:36;;;;;;;1.53;0.90;;;14.30;99.90;;;;;;4974573;28;20210;-72
2021/05/08 10:03:09;;;;;;;2.23;1.10;;;14.00;99.90;;;;;;4974150;28;20571;-72
2021/05/08 10:05:35;;;;;;;2.10;0.90;;;14.00;99.90;;;;;;4974119;28;20214;-72
2021/05/08 10:08:01;;;;;;;1.23;0.80;;;13.90;99.90;;;;;;4974161;28;20233;-72
2021/05/08 10:10:28;;;;;;;2.20;0.80;;;14.00;99.90;;;;;;4974332;28;20214;-72
2021/05/08 10:12:56;;;;;;;4.30;1.00;;;14.40;99.90;;;;;;4974346;28;20218;-72
2021/05/08 10:15:23;;;;;;;1.57;1.00;;;14.20;99.90;;;;;;4974201;28;20215;-71
2021/05/08 10:17:51;;;;;;;0.97;0.80;;;14.20;99.90;;;;;;4973946;28;20222;-72
2021/05/08 10:20:19;;;;;;;1.77;0.97;;;14.50;99.90;;;;;;4974282;28;20207;-72
2021/05/08 10:22:52;;;;;;;1.83;0.97;;;14.50;99.90;;;;;;4974087;28;20353;-72
2021/05/08 10:25:18;;;;;;;2.53;0.77;;;14.60;99.90;;;;;;4974265;28;20218;-72
2021/05/08 10:27:45;;;;;;;1.00;0.67;;;14.90;99.90;;;;;;4973833;28;20267;-71
2021/05/08 10:30:17;;;;;;;3.10;1.00;;;15.40;99.90;;;;;;4974212;28;20203;-72
2021/05/08 10:32:46;;;;;;;0.80;0.67;;;15.40;99.90;;;;;;4975789;28;20203;-72
2021/05/08 10:35:14;;;;;;;1.00;0.80;;;15.50;99.90;;;;;;4978247;28;20692;-73
2021/05/08 10:38:00;;;;;;;1.30;0.73;;;15.50;99.90;;;;;;4977826;28;20211;-73
2021/05/08 10:40:26;;;;;;;0.80;0.70;;;15.40;99.90;;;;;;4977803;28;20218;-73
2021/05/08 10:42:53;;;;;;;1.23;0.90;;;15.20;99.90;;;;;;4977894;28;20226;-73
2021/05/08 10:45:32;;;;;;;1.83;0.90;;;14.90;99.90;;;;;;4977838;28;20565;-73
2021/05/08 10:48:12;;;;;;;1.37;0.90;;;14.40;99.90;;;;;;4973610;28;20357;-72
2021/05/08 10:50:46;;;;;;;1.33;0.80;;;14.10;99.90;;;;;;4975497;28;20558;-71
2021/05/08 10:53:14;;;;;;;1.60;0.90;;;13.90;99.90;;;;;;4977290;28;20677;-72
2021/05/08 10:55:49;;;;;;;1.57;1.00;;;13.70;99.90;;;;;;4977153;28;20235;-72
2021/05/08 10:58:32;;;;;;;1.20;0.90;;;13.70;99.90;;;;;;4976805;28;20705;-72
2021/05/08 11:01:00;;;;;;;3.30;1.23;;;13.80;99.90;;;;;;4976513;28;20211;-73
2021/05/08 11:03:29;;;;;;;2.10;0.87;;;13.90;99.90;;;;;;4976062;28;20631;-72
2021/05/08 11:05:56;;;;;;;2.00;1.00;;;14.00;99.90;;;;;;4974365;28;20235;-73
2021/05/08 11:08:48;;;;;;;1.37;0.90;;;14.20;99.90;;;;;;4962272;28;20220;-73
2021/05/08 11:11:16;;;;;;;2.23;0.90;;;14.20;99.90;;;;;;4976934;28;20222;-73
2021/05/08 11:13:50;;;;;;;1.30;0.80;;;14.50;99.90;;;;;;4976677;28;20215;-73
2021/05/08 11:16:19;;;;;;;2.33;1.10;;;14.80;99.90;;;;;;4977147;28;20298;-73
2021/05/08 11:18:46;;;;;;;3.07;0.83;;;15.00;99.90;;;;;;4976231;28;20250;-73
2021/05/08 11:21:38;;;;;;;2.00;1.00;;;15.20;99.90;;;;;;4973644;28;20211;-73
2021/05/08 11:24:05;;;;;;;2.47;1.00;;;15.30;99.90;;;;;;4963146;28;20204;-73
2021/05/08 11:26:34;;;;;;;1.23;0.80;;;15.30;99.90;;;;;;4970826;28;20349;-72
2021/05/08 11:29:01;;;;;;;3.97;0.87;;;15.30;99.90;;;;;;4970561;28;20275;-72
2021/05/08 11:31:29;;;;;;;2.23;0.87;;;15.40;99.90;;;;;;4972228;28;20196;-72
2021/05/08 11:34:05;;;;;;;2.30;0.90;;;15.50;99.90;;;;;;4971899;28;20570;-72
2021/05/08 11:36:31;;;;;;;4.77;1.03;;;15.60;99.90;;;;;;4969911;28;20677;-72
2021/05/08 11:39:08;;;;;;;2.23;1.07;;;15.60;99.90;;;;;;4967949;28;20231;-72
2021/05/08 11:41:34;;;;;;;0.87;0.70;;;15.70;99.90;;;;;;4968665;28;20199;-73
2021/05/08 11:44:01;;;;;;;2.00;0.70;;;15.60;99.90;;;;;;4969921;28;20211;-72
2021/05/08 11:46:28;;;;;;;1.13;0.70;;;15.40;99.90;;;;;;4974655;28;20231;-72
2021/05/08 11:48:55;;;;;;;1.50;0.90;;;15.30;99.90;;;;;;4972119;28;20259;-73
2021/05/08 11:51:21;;;;;;;1.53;1.00;;;15.30;99.90;;;;;;4969974;28;20207;-72
2021/05/08 11:54:09;;;;;;;1.17;0.80;;;15.30;99.90;;;;;;4962679;28;20571;-72
2021/05/08 11:56:36;;;;;;;1.83;1.10;;;15.50;99.90;;;;;;4969821;28;20565;-72
2021/05/08 11:59:03;;;;;;;2.03;0.80;;;15.50;99.90;;;;;;4967793;28;20227;-73
2021/05/08 12:01:31;;;;;;;1.83;0.77;;;15.60;99.90;;;;;;4961402;28;20216;-74
2021/05/08 12:03:58;;;;;;;1.90;0.63;;;15.80;99.90;;;;;;4966869;28;20665;-74
2021/05/08 12:06:24;;;;;;;0.80;0.50;;;15.90;99.90;;;;;;4964415;28;20250;-72
2021/05/08 12:08:51;;;;;;;2.97;0.80;;;16.00;99.90;;;;;;4964261;28;20231;-71
2021/05/08 12:11:18;;;;;;;1.07;0.80;;;16.20;99.90;;;;;;4964811;28;20210;-72
2021/05/08 12:13:45;;;;;;;1.43;0.80;;;16.20;99.90;;;;;;4971035;28;20207;-71
2021/05/08 12:16:12;;;;;;;3.33;1.00;;;16.30;99.90;;;;;;4966160;28;20214;-73
2021/05/08 12:18:40;;;;;;;1.20;0.80;;;16.20;99.90;;;;;;4966571;28;20227;-72
2021/05/08 12:21:07;;;;;;;0.70;0.60;;;16.10;99.90;;;;;;4965865;28;20610;-73
2021/05/08 12:23:35;;;;;;;1.67;0.80;;;16.30;99.90;;;;;;4964400;28;20238;-73
2021/05/08 12:26:09;;;;;;;2.77;0.77;;;16.20;99.90;;;;;;4961756;28;20228;-72
2021/05/08 12:28:36;;;;;;;0.90;0.77;;;16.20;99.90;;;;;;4969061;28;20232;-73
2021/05/08 12:31:30;;;;;;;2.50;0.97;;;16.20;99.90;;;;;;4965933;28;20787;-73
2021/05/08 12:33:58;;;;;;;1.67;1.00;;;16.00;99.90;;;;;;4965593;28;20305;-72
2021/05/08 12:36:26;;;;;;;4.30;0.90;;;16.00;99.90;;;;;;4967548;28;20701;-73
2021/05/08 12:38:54;;;;;;;2.07;0.97;;;16.50;99.90;;;;;;4971812;28;20266;-73
2021/05/08 12:41:28;;;;;;;3.57;1.07;;;16.80;99.90;;;;;;4964184;28;20208;-72
2021/05/08 12:44:09;;;;;;;3.43;1.00;;;16.90;99.90;;;;;;4967022;28;20213;-72
2021/05/08 12:46:58;;;;;;;1.50;0.93;;;17.20;99.90;;;;;;4965558;28;20236;-72
2021/05/08 12:49:26;;;;;;;0.87;0.63;;;17.20;99.90;;;;;;4964038;28;20236;-72
2021/05/08 12:51:53;;;;;;;1.13;0.80;;;17.10;99.90;;;;;;4963821;28;20211;-72
2021/05/08 12:54:24;;;;;;;2.77;0.77;;;17.10;99.90;;;;;;4961834;28;20218;-73
2021/05/08 12:56:52;;;;;;;2.73;0.80;;;17.10;99.90;;;;;;4958206;28;20218;-73
2021/05/08 12:59:27;;;;;;;3.53;0.90;;;17.10;99.90;;;;;;4961511;28;20227;-72
2021/05/08 13:01:55;;;;;;;1.93;0.80;;;17.20;99.90;;;;;;4970879;28;20222;-73
2021/05/08 13:04:38;;;;;;;1.90;0.73;;;17.40;99.90;;;;;;4966810;28;20222;-74
2021/05/08 13:07:33;;;;;;;2.30;1.00;;;17.60;99.90;;;;;;4963456;28;20580;-73
2021/05/08 13:10:20;;;;;;;1.27;0.70;;;17.40;99.90;;;;;;4961270;28;20207;-73
2021/05/08 13:12:48;;;;;;;1.83;0.67;;;17.40;99.90;;;;;;4968766;28;20214;-72
2021/05/08 13:15:16;;;;;;;1.60;0.67;;;17.50;99.90;;;;;;4964847;28;20215;-72
2021/05/08 13:17:44;;;;;;;1.63;0.67;;;17.60;99.90;;;;;;4957068;28;20208;-73
2021/05/08 13:20:13;;;;;;;3.17;0.70;;;17.50;99.90;;;;;;4966064;28;20266;-73
2021/05/08 13:22:42;;;;;;;0.87;0.70;;;17.30;99.90;;;;;;4964553;28;20235;-72
2021/05/08 13:25:10;;;;;;;1.80;0.60;;;17.40;99.90;;;;;;4958696;28;20208;-73
2021/05/08 13:27:37;;;;;;;1.30;0.70;;;17.50;99.90;;;;;;4963801;28;20241;-72
2021/05/08 13:30:03;;;;;;;1.27;0.80;;;17.40;99.90;;;;;;4966148;28;20204;-73
2021/05/08 13:32:30;;;;;;;2.03;0.60;;;17.60;99.90;;;;;;4960275;28;20208;-73
2021/05/08 13:34:56;;;;;;;1.70;0.80;;;17.70;99.90;;;;;;4961105;28;20302;-73
2021/05/08 13:37:23;;;;;;;2.87;0.77;;;17.70;99.90;;;;;;4971010;28;20199;-74
2021/05/08 13:39:49;;;;;;;0.90;0.73;;;17.90;99.90;;;;;;4957097;28;20308;-73
2021/05/08 13:42:16;;;;;;;3.80;0.70;;;18.10;99.90;;;;;;4970905;28;20214;-73
2021/05/08 13:44:42;;;;;;;1.97;1.00;;;18.30;99.90;;;;;;4965892;28;20267;-73
2021/05/08 13:47:21;;;;;;;1.33;0.83;;;18.30;99.90;;;;;;4961258;28;20234;-72
2021/05/08 13:49:48;;;;;;;1.00;0.90;;;18.40;99.90;;;;;;4967201;28;20254;-73
2021/05/08 13:52:14;;;;;;;1.80;0.83;;;18.60;99.90;;;;;;4967648;28;20619;-72
2021/05/08 13:54:41;;;;;;;3.70;0.87;;;18.70;99.90;;;;;;4954400;29;20267;-73
2021/05/08 13:57:07;;;;;;;1.60;1.00;;;18.90;99.90;;;;;;4954084;29;20216;-73
2021/05/08 13:59:34;;;;;;;2.07;0.70;;;18.90;99.90;;;;;;4955428;28;20757;-71
2021/05/08 14:02:00;;;;;;;1.13;0.80;;;19.20;99.90;;;;;;4954854;29;20219;-73
2021/05/08 14:04:26;;;;;;;2.10;0.80;;;19.30;99.90;;;;;;4954657;29;20239;-74
2021/05/08 14:06:52;;;;;;;1.33;0.77;;;19.40;99.90;;;;;;4954247;29;20587;-72
2021/05/08 14:09:19;;;;;;;5.20;2.33;;;19.70;99.90;;;;;;4954541;28;20232;-70
2021/05/08 14:11:46;;;;;;;1.27;0.80;;;19.50;99.90;;;;;;4954913;29;20219;-72
2021/05/08 14:14:12;;;;;;;1.40;1.00;;;19.50;99.90;;;;;;4954505;29;20236;-73
2021/05/08 14:16:38;;;;;;;2.10;0.90;;;19.70;99.90;;;;;;4954696;29;20675;-72
2021/05/08 14:19:05;;;;;;;2.30;1.00;;;19.40;99.90;;;;;;4954655;28;20228;-72
2021/05/08 14:21:31;;;;;;;1.87;1.00;;;19.30;99.90;;;;;;4954597;29;20301;-73
2021/05/08 14:23:57;;;;;;;1.70;0.90;;;19.30;99.90;;;;;;4954455;29;20230;-74
2021/05/08 14:26:24;;;;;;;1.17;1.00;;;19.10;99.90;;;;;;4954771;29;20306;-72
2021/05/08 14:28:51;;;;;;;1.40;1.00;;;18.60;99.90;;;;;;4954461;28;20564;-71
2021/05/08 14:31:17;;;;;;;1.20;0.90;;;18.40;99.90;;;;;;4954653;29;20270;-71
2021/05/08 14:33:44;;;;;;;2.33;1.00;;;18.50;99.90;;;;;;4954430;29;20690;-72
2021/05/08 14:36:10;;;;;;;1.20;1.00;;;18.70;99.90;;;;;;4954491;29;20635;-72
2021/05/08 14:38:36;;;;;;;2.00;1.07;;;19.10;99.90;;;;;;4954517;28;20232;-71
2021/05/08 14:41:03;;;;;;;2.47;1.30;;;19.20;99.90;;;;;;4954584;29;20671;-72
2021/05/08 14:43:29;;;;;;;3.23;1.13;;;19.20;99.90;;;;;;4954624;29;20564;-71
2021/05/08 14:45:56;;;;;;;3.23;1.23;;;19.20;99.90;;;;;;4954189;29;20686;-73
2021/05/08 14:48:22;;;;;;;4.20;0.80;;;19.10;99.90;;;;;;4954257;28;20235;-72
2021/05/08 14:50:48;;;;;;;2.53;1.20;;;19.10;99.90;;;;;;4954546;29;20575;-72
2021/05/08 14:53:14;;;;;;;3.13;1.00;;;19.10;99.90;;;;;;4954317;29;20216;-72
2021/05/08 14:55:41;;;;;;;2.30;0.90;;;19.30;99.90;;;;;;4954596;29;20263;-72
2021/05/08 14:58:08;;;;;;;1.73;1.00;;;19.40;99.90;;;;;;4954172;28;20587;-71
2021/05/08 15:00:34;;;;;;;1.30;0.90;;;19.80;99.90;;;;;;4954293;29;20287;-72
2021/05/08 15:03:01;;;;;;;0.80;0.70;;;19.90;99.90;;;;;;4954101;29;20231;-74
2021/05/08 15:05:27;;;;;;;1.60;0.80;;;19.90;99.90;;;;;;4954292;29;20211;-72
2021/05/08 15:07:53;;;;;;;1.87;0.77;;;19.90;99.90;;;;;;4954046;28;20240;-72
2021/05/08 15:10:20;;;;;;;1.30;0.90;;;19.90;99.90;;;;;;4954169;29;20213;-72
2021/05/08 15:12:47;;;;;;;1.33;0.70;;;19.80;99.90;;;;;;4954344;29;20217;-72
2021/05/08 15:15:15;;;;;;;2.07;1.03;;;19.70;99.90;;;;;;4954183;29;20212;-72
2021/05/08 15:17:42;;;;;;;2.00;0.97;;;19.70;99.90;;;;;;4953933;28;20212;-72
2021/05/08 15:20:10;;;;;;;1.23;0.80;;;19.70;99.90;;;;;;4956313;29;20208;-72
2021/05/08 15:22:36;;;;;;;3.10;1.10;;;19.60;99.90;;;;;;4957939;29;20212;-72
2021/05/08 15:25:03;;;;;;;1.63;0.90;;;19.60;99.90;;;;;;4957929;29;20219;-72
2021/05/08 15:27:30;;;;;;;2.60;0.80;;;19.60;99.90;;;;;;4957650;29;20239;-72
2021/05/08 15:29:56;;;;;;;1.70;0.90;;;19.50;99.90;;;;;;4957568;28;20279;-72
2021/05/08 15:32:22;;;;;;;2.10;0.90;;;19.40;99.90;;;;;;4957192;29;20745;-72
2021/05/08 15:34:48;;;;;;;1.83;0.83;;;19.20;99.90;;;;;;4957524;29;20216;-72
2021/05/08 15:37:16;;;;;;;2.57;0.93;;;19.20;99.90;;;;;;4957222;29;20223;-72
2021/05/08 15:39:42;;;;;;;1.20;0.90;;;19.20;99.90;;;;;;4957346;28;20224;-72
2021/05/08 15:42:08;;;;;;;1.53;0.90;;;19.50;99.90;;;;;;4957486;29;20219;-72
2021/05/08 15:44:34;;;;;;;1.33;0.90;;;19.80;99.90;;;;;;4957508;29;20215;-72
2021/05/08 15:47:03;;;;;;;1.23;0.80;;;19.90;99.90;;;;;;4957244;29;20243;-72
2021/05/08 15:49:29;;;;;;;3.03;0.90;;;19.90;99.90;;;;;;4957358;28;20239;-71
2021/05/08 15:51:55;;;;;;;1.67;1.53;;;20.00;99.90;;;;;;4957082;29;20219;-71
2021/05/08 15:54:23;;;;;;;1.27;0.80;;;20.00;99.90;;;;;;4957343;29;20212;-72
2021/05/08 15:56:50;;;;;;;1.73;1.00;;;19.90;99.90;;;;;;4957908;29;20209;-72
2021/05/08 15:59:16;;;;;;;2.50;0.90;;;19.70;99.90;;;;;;4957014;28;20224;-72
2021/05/08 16:01:43;;;;;;;1.70;0.97;;;19.60;99.90;;;;;;4956867;29;20215;-72
2021/05/08 16:04:09;;;;;;;2.03;0.80;;;19.60;99.90;;;;;;4956443;29;20258;-72
2021/05/08 16:06:35;;;;;;;1.87;0.80;;;19.80;99.90;;;;;;4956748;29;20703;-72
2021/05/08 16:09:02;;;;;;;3.33;0.70;;;20.00;99.90;;;;;;4957023;28;20232;-72
2021/05/08 16:11:30;;;;;;;1.10;0.80;;;20.00;99.90;;;;;;4956748;29;20216;-72
2021/05/08 16:13:56;;;;;;;1.37;0.90;;;19.90;99.90;;;;;;4956761;29;20208;-72
2021/05/08 16:16:22;;;;;;;1.40;1.07;;;19.60;99.90;;;;;;4956690;29;20215;-71
2021/05/08 16:18:48;;;;;;;3.53;1.00;;;19.40;99.90;;;;;;4956625;28;20243;-72
2021/05/08 16:21:15;;;;;;;3.00;1.10;;;19.40;99.90;;;;;;4956676;29;20215;-72
2021/05/08 16:23:41;;;;;;;3.23;0.93;;;19.10;99.90;;;;;;4956554;29;20219;-70
2021/05/08 16:26:07;;;;;;;4.00;1.00;;;19.10;99.90;;;;;;4956337;29;20211;-71
2021/05/08 16:28:34;;;;;;;4.13;1.30;;;19.10;99.90;;;;;;4956196;28;20245;-72
2021/05/08 16:31:01;;;;;;;1.27;1.00;;;19.10;99.90;;;;;;4955812;28;20208;-72
2021/05/08 16:33:27;;;;;;;2.13;1.00;;;19.00;99.90;;;;;;4955781;29;20231;-71
2021/05/08 16:35:53;;;;;;;1.87;1.00;;;19.00;99.90;;;;;;4956069;29;20208;-71
2021/05/08 16:38:19;;;;;;;2.87;1.13;;;19.00;99.90;;;;;;4955940;28;20235;-71
2021/05/08 16:40:46;;;;;;;2.93;1.20;;;19.10;99.90;;;;;;4955978;29;20219;-72
2021/05/08 16:43:12;;;;;;;3.90;1.00;;;19.10;99.90;;;;;;4956120;29;20215;-72
2021/05/08 16:45:41;;;;;;;1.73;1.20;;;19.30;99.90;;;;;;4955925;29;20208;-72
2021/05/08 16:48:07;;;;;;;2.40;1.10;;;19.20;99.90;;;;;;4955602;28;20246;-72
2021/05/08 16:50:34;;;;;;;4.13;0.87;;;19.30;99.90;;;;;;4955738;29;20212;-73
2021/05/08 16:53:01;;;;;;;2.57;0.93;;;19.30;99.90;;;;;;4955965;29;20208;-72
2021/05/08 16:55:29;;;;;;;2.57;1.07;;;19.10;99.90;;;;;;4955939;29;20271;-71
2021/05/08 16:57:55;;;;;;;1.33;0.80;;;19.10;99.90;;;;;;4956006;28;20232;-72
2021/05/08 17:00:24;;;;;;;3.57;1.10;;;19.00;99.90;;;;;;4955762;29;20219;-72
2021/05/08 17:02:51;;;;;;;2.10;1.10;;;19.00;99.90;;;;;;4955399;29;20298;-72
2021/05/08 17:05:18;;;;;;;3.17;1.47;;;19.10;99.90;;;;;;4955991;29;20237;-72
2021/05/08 17:07:44;;;;;;;2.00;1.20;;;19.10;99.90;;;;;;4955718;28;20240;-72
2021/05/08 17:10:12;;;;;;;1.93;1.30;;;19.10;99.90;;;;;;4955496;29;20215;-72
2021/05/08 17:12:38;;;;;;;2.40;1.23;;;19.20;99.90;;;;;;4955231;29;20200;-71
2021/05/08 17:15:05;;;;;;;2.97;1.40;;;19.40;99.90;;;;;;4955295;29;20215;-72
2021/05/08 17:17:31;;;;;;;1.70;1.23;;;19.60;99.90;;;;;;4955328;29;20212;-72
2021/05/08 17:19:59;;;;;;;3.93;0.90;;;19.60;99.90;;;;;;4955320;28;20232;-72
2021/05/08 17:22:25;;;;;;;2.35;1.08;;;19.50;99.90;;;;;;4955136;29;20236;-72
2021/05/08 17:24:52;;;;;;;2.60;1.10;;;19.40;99.90;;;;;;4955183;29;20204;-72
2021/05/08 17:27:19;;;;;;;2.40;0.90;;;19.30;99.90;;;;;;4955066;29;20722;-71
2021/05/08 17:29:45;;;;;;;2.27;1.10;;;19.20;99.90;;;;;;4955039;28;20267;-73
2021/05/08 17:32:12;;;;;;;2.43;0.97;;;19.00;99.90;;;;;;4955301;29;20208;-72
2021/05/08 17:34:39;;;;;;;1.63;0.83;;;19.00;99.90;;;;;;4955183;29;20208;-72
2021/05/08 17:37:07;;;;;;;1.37;0.87;;;19.00;99.90;;;;;;4955227;29;20693;-73
2021/05/08 17:39:33;;;;;;;3.83;1.23;;;18.90;99.90;;;;;;4955207;28;20235;-72
2021/05/08 17:42:00;;;;;;;0.87;0.77;;;18.80;99.90;;;;;;4954116;28;20738;-73
2021/05/08 17:44:27;;;;;;;2.23;0.93;;;18.80;99.90;;;;;;4955151;29;20216;-73
2021/05/08 17:46:55;;;;;;;2.53;1.33;;;18.80;99.90;;;;;;4955228;29;20235;-72
2021/05/08 17:49:22;;;;;;;0.90;0.80;;;18.90;99.90;;;;;;4954876;28;20280;-72
2021/05/08 17:51:48;;;;;;;3.40;1.20;;;19.00;99.90;;;;;;4954964;29;20208;-72
2021/05/08 17:54:16;;;;;;;2.53;1.27;;;18.90;99.90;;;;;;4954845;29;20208;-72
2021/05/08 17:56:45;;;;;;;5.22;1.48;;;18.90;99.90;;;;;;4954764;29;20351;-73
2021/05/08 17:59:11;;;;;;;4.85;1.92;;;18.90;99.90;;;;;;4955002;28;20235;-73
2021/05/08 18:01:38;;;;;;;3.03;1.38;;;18.90;99.90;;;;;;4954958;29;20276;-72
2021/05/08 18:04:05;;;;;;;3.97;1.40;;;19.00;99.90;;;;;;4954585;29;20207;-73
2021/05/08 18:06:31;;;;;;;4.80;1.37;;;18.90;99.90;;;;;;4954695;29;20212;-72
2021/05/08 18:08:57;;;;;;;3.47;1.30;;;18.90;99.90;;;;;;4963687;28;20278;-72
2021/05/08 18:11:24;;;;;;;3.17;1.53;;;18.80;99.90;;;;;;4973770;28;20286;-73
2021/05/08 18:13:50;;;;;;;3.33;1.50;;;18.80;99.90;;;;;;4973716;28;20210;-72
2021/05/08 18:16:17;;;;;;;1.83;1.10;;;18.80;99.90;;;;;;4974071;28;20215;-72
2021/05/08 18:18:43;;;;;;;2.90;1.27;;;18.70;99.90;;;;;;4973777;28;20227;-72
2021/05/08 18:21:09;;;;;;;3.37;1.40;;;18.60;99.90;;;;;;4974044;28;20206;-72
2021/05/08 18:23:35;;;;;;;1.97;1.30;;;18.50;99.90;;;;;;4973485;28;20207;-72
2021/05/08 18:26:02;;;;;;;1.70;1.00;;;18.40;99.90;;;;;;4973893;28;20199;-73
2021/05/08 18:28:31;;;;;;;2.97;1.30;;;18.40;99.90;;;;;;4973447;28;20250;-72
2021/05/08 18:30:58;;;;;;;5.83;1.40;;;18.50;99.90;;;;;;4973432;28;20686;-72
2021/05/08 18:33:24;;;;;;;6.03;1.37;;;18.40;99.90;;;;;;4973858;28;20239;-71
2021/05/08 18:35:50;;;;;;;2.07;1.10;;;18.40;99.90;;;;;;4973982;28;20234;-72
2021/05/08 18:38:17;;;;;;;1.40;1.00;;;18.40;99.90;;;;;;4973134;28;20233;-72
2021/05/08 18:40:43;;;;;;;2.57;1.30;;;18.40;99.90;;;;;;4973538;28;20258;-72
2021/05/08 18:43:09;;;;;;;1.83;1.20;;;18.30;99.90;;;;;;4973875;28;20211;-72
2021/05/08 18:45:37;;;;;;;2.10;1.20;;;18.30;99.90;;;;;;4973450;28;20667;-72
2021/05/08 18:48:03;;;;;;;2.43;1.13;;;18.20;99.90;;;;;;4973320;28;20239;-73
2021/05/08 18:50:30;;;;;;;2.97;1.43;;;18.10;99.90;;;;;;4973864;28;20212;-72
2021/05/08 18:52:56;;;;;;;1.83;1.10;;;18.10;99.90;;;;;;4973778;28;20234;-72
2021/05/08 18:55:22;;;;;;;3.97;1.63;;;18.10;99.90;;;;;;4977051;28;20211;-72
2021/05/08 18:57:48;;;;;;;2.20;0.90;;;17.90;99.90;;;;;;4977704;28;20211;-73
2021/05/08 19:00:15;;;;;;;1.70;0.80;;;17.80;99.90;;;;;;4969554;28;20212;-72
2021/05/08 19:02:42;;;;;;;3.03;0.93;;;17.80;99.90;;;;;;4963486;28;20293;-72
2021/05/08 19:05:10;;;;;;;4.40;1.20;;;17.60;99.90;;;;;;4972226;28;20207;-72
2021/05/08 19:07:36;;;;;;;1.67;1.13;;;17.60;99.90;;;;;;4968735;28;20235;-72
2021/05/08 19:10:03;;;;;;;4.67;1.10;;;17.50;99.90;;;;;;4969233;28;20266;-72
2021/05/08 19:12:29;;;;;;;1.20;0.97;;;17.60;99.90;;;;;;4970991;28;20211;-72
2021/05/08 19:14:55;;;;;;;1.87;1.00;;;17.50;99.90;;;;;;4974555;28;20663;-72
2021/05/08 19:17:21;;;;;;;3.03;1.37;;;17.50;99.90;;;;;;4964778;28;20207;-72
2021/05/08 19:19:48;;;;;;;2.03;1.00;;;17.50;99.90;;;;;;4964814;28;20239;-72
2021/05/08 19:22:17;;;;;;;1.30;0.90;;;17.40;99.90;;;;;;4973716;28;20211;-73
2021/05/08 19:24:44;;;;;;;2.87;1.20;;;17.40;99.90;;;;;;4965585;28;20204;-72
2021/05/08 19:27:10;;;;;;;2.07;1.10;;;17.40;99.90;;;;;;4961800;28;20231;-72
2021/05/08 19:29:37;;;;;;;2.40;1.13;;;17.30;99.90;;;;;;4973326;28;20575;-72
2021/05/08 19:32:03;;;;;;;2.20;0.97;;;17.30;99.90;;;;;;4973282;28;20212;-72
2021/05/08 19:34:33;;;;;;;2.77;1.20;;;17.30;99.90;;;;;;4963699;28;20208;-72
2021/05/08 19:37:00;;;;;;;2.83;1.10;;;17.20;99.90;;;;;;4964973;28;20219;-73
2021/05/08 19:39:27;;;;;;;3.10;1.10;;;17.20;99.90;;;;;;4965676;28;20235;-71
2021/05/08 19:41:53;;;;;;;1.97;1.00;;;17.20;99.90;;;;;;4963109;28;20559;-72
2021/05/08 19:44:20;;;;;;;1.37;0.93;;;17.20;99.90;;;;;;4965966;28;20208;-73
2021/05/08 19:46:46;;;;;;;2.73;1.10;;;17.10;99.90;;;;;;4972103;28;20323;-73
2021/05/08 19:49:13;;;;;;;1.43;1.00;;;17.10;99.90;;;;;;4969307;28;20227;-72
2021/05/08 19:51:39;;;;;;;3.27;1.27;;;17.10;99.90;;;;;;4970684;28;20671;-73
2021/05/08 19:54:07;;;;;;;2.53;1.07;;;17.00;99.90;;;;;;4968699;28;20315;-72
2021/05/08 19:56:35;;;;;;;1.97;1.20;;;17.00;99.90;;;;;;4967343;28;20211;-73
2021/05/08 19:59:02;;;;;;;3.10;1.20;;;16.90;99.90;;;;;;4966130;28;20644;-73
2021/05/08 20:01:29;;;;;;;2.33;1.20;;;16.80;99.90;;;;;;4967198;28;20247;-73
2021/05/08 20:03:55;;;;;;;2.27;1.20;;;16.80;99.90;;;;;;4963842;28;20235;-72
2021/05/08 20:06:21;;;;;;;3.27;1.63;;;16.70;99.90;;;;;;4963838;28;20682;-72
2021/05/08 20:08:47;;;;;;;3.17;1.20;;;16.60;99.90;;;;;;4967312;28;20239;-73
2021/05/08 20:11:14;;;;;;;3.63;1.47;;;16.60;99.90;;;;;;4966747;28;20211;-73
2021/05/08 20:13:41;;;;;;;4.97;1.83;;;16.60;99.90;;;;;;4964437;28;20231;-73
2021/05/08 20:16:07;;;;;;;5.63;1.57;;;16.60;99.90;;;;;;4967927;28;20216;-72
2021/05/08 20:18:34;;;;;;;2.87;1.20;;;16.50;99.90;;;;;;4970906;28;20227;-73
2021/05/08 20:21:01;;;;;;;4.00;1.37;;;16.40;99.90;;;;;;4963617;28;20203;-72
2021/05/08 20:23:27;;;;;;;3.20;1.50;;;16.50;99.90;;;;;;4963004;28;20204;-73
2021/05/08 20:25:53;;;;;;;2.63;1.30;;;16.50;99.90;;;;;;4969046;28;20224;-72
2021/05/08 20:28:21;;;;;;;4.40;1.40;;;16.40;99.90;;;;;;4972225;28;20242;-73
2021/05/08 20:30:47;;;;;;;2.43;1.40;;;16.40;99.90;;;;;;4961532;28;20204;-72
2021/05/08 20:33:13;;;;;;;3.30;1.40;;;16.30;99.90;;;;;;4965034;28;20579;-72
2021/05/08 20:35:40;;;;;;;4.50;1.80;;;16.30;99.90;;;;;;4964503;28;20200;-72
2021/05/08 20:38:06;;;;;;;2.60;1.40;;;16.30;99.90;;;;;;4962125;28;20228;-72
2021/05/08 20:40:33;;;;;;;2.97;1.53;;;16.30;99.90;;;;;;4964707;28;20211;-73
2021/05/08 20:42:59;;;;;;;3.30;1.30;;;16.20;99.90;;;;;;4970376;28;20211;-73
2021/05/08 20:45:28;;;;;;;3.67;1.43;;;16.20;99.90;;;;;;4966051;28;20208;-72
2021/05/08 20:47:54;;;;;;;1.63;1.07;;;16.20;99.90;;;;;;4971090;28;20329;-72
2021/05/08 20:50:20;;;;;;;3.40;1.23;;;16.10;99.90;;;;;;4967264;28;20218;-72
2021/05/08 20:52:47;;;;;;;4.23;1.20;;;16.20;99.90;;;;;;4962977;28;20227;-72
2021/05/08 20:55:13;;;;;;;1.87;1.33;;;16.10;99.90;;;;;;4960386;28;20210;-73